createdAt,value
2018-12-02T00:00:54.936Z,31.80
2018-12-02T00:03:24.259Z,31.83
2018-12-02T00:05:53.475Z,30.17
2018-12-02T00:08:22.600Z,30.23
2018-12-02T00:10:51.778Z,35.00
2018-12-02T00:13:21.623Z,31.73
2018-12-02T00:15:50.839Z,30.07
2018-12-02T00:18:20.072Z,33.10
2018-12-02T00:20:49.501Z,35.97
2018-12-02T00:23:18.773Z,37.77
2018-12-02T00:25:47.925Z,31.43
2018-12-02T00:28:17.092Z,31.63
2018-12-02T00:30:46.393Z,38.47
2018-12-02T00:33:15.618Z,29.47
2018-12-02T00:35:44.759Z,34.40
2018-12-02T00:38:13.962Z,31.83
2018-12-02T00:40:43.137Z,34.63
2018-12-02T00:43:12.302Z,33.23
2018-12-02T00:45:41.614Z,36.33
2018-12-02T00:48:10.783Z,32.30
2018-12-02T00:50:39.942Z,32.50
2018-12-02T00:53:09.977Z,33.77
2018-12-02T00:55:41.766Z,29.53
2018-12-02T00:58:10.927Z,29.80
2018-12-02T01:00:40.153Z,26.07
2018-12-02T01:03:10.213Z,28.80
2018-12-02T01:05:39.436Z,27.90
2018-12-02T01:08:08.660Z,31.20
2018-12-02T01:10:37.960Z,28.00
2018-12-02T01:13:09.051Z,25.83
2018-12-02T01:15:39.300Z,30.23
2018-12-02T01:18:08.768Z,24.90
2018-12-02T01:20:38.695Z,29.13
2018-12-02T01:23:08.053Z,26.03
2018-12-02T01:25:37.511Z,25.67
2018-12-02T01:28:07.289Z,24.00
2018-12-02T01:30:36.511Z,31.30
2018-12-02T01:33:05.800Z,28.90
2018-12-02T01:35:35.764Z,32.23
2018-12-02T01:38:04.980Z,27.70
2018-12-02T01:40:34.188Z,24.53
2018-12-02T01:43:03.414Z,24.53
2018-12-02T01:45:32.625Z,25.40
2018-12-02T01:48:01.819Z,20.00
2018-12-02T01:50:31.039Z,20.63
2018-12-02T01:53:00.257Z,21.27
2018-12-02T01:55:29.721Z,23.17
2018-12-02T01:57:58.899Z,21.40
2018-12-02T02:00:28.749Z,22.17
2018-12-02T02:02:58.070Z,22.53
2018-12-02T02:05:27.569Z,22.63
2018-12-02T02:07:56.715Z,23.23
2018-12-02T02:10:26.757Z,24.73
2018-12-02T02:12:56.086Z,29.33
2018-12-02T02:15:25.392Z,21.27
2018-12-02T02:17:54.586Z,22.60
2018-12-02T02:20:26.086Z,22.20
2018-12-02T02:22:55.302Z,20.33
2018-12-02T02:25:24.726Z,22.93
2018-12-02T02:27:55.363Z,20.17
2018-12-02T02:30:25.567Z,22.47
2018-12-02T02:32:54.767Z,28.27
2018-12-02T02:35:24.070Z,24.90
2018-12-02T02:37:54.389Z,20.67
2018-12-02T02:40:30.644Z,23.47
2018-12-02T02:42:59.837Z,21.70
2018-12-02T02:45:29.054Z,23.13
2018-12-02T02:47:58.220Z,27.67
2018-12-02T02:50:27.397Z,27.03
2018-12-02T02:52:57.851Z,23.13
2018-12-02T02:55:27.103Z,22.30
2018-12-02T02:57:56.461Z,23.87
2018-12-02T03:00:26.505Z,22.23
2018-12-02T03:02:55.761Z,19.23
2018-12-02T03:05:25.005Z,23.10
2018-12-02T03:07:54.217Z,22.13
2018-12-02T03:10:23.435Z,22.90
2018-12-02T03:12:54.169Z,24.20
2018-12-02T03:15:23.928Z,26.23
2018-12-02T03:17:53.168Z,30.47
2018-12-02T03:20:22.928Z,32.27
2018-12-02T03:22:52.951Z,34.27
2018-12-02T03:25:23.128Z,32.33
2018-12-02T03:27:52.369Z,36.60
2018-12-02T03:30:22.593Z,31.80
2018-12-02T03:32:51.989Z,31.60
2018-12-02T03:35:22.069Z,40.33
2018-12-02T03:37:51.470Z,33.70
2018-12-02T03:40:22.626Z,32.77
2018-12-02T03:42:52.285Z,37.97
2018-12-02T03:45:25.086Z,34.50
2018-12-02T03:47:54.239Z,41.93
2018-12-02T03:50:23.882Z,36.50
2018-12-02T03:52:53.075Z,33.80
2018-12-02T03:55:22.267Z,38.03
2018-12-02T03:57:51.474Z,36.80
2018-12-02T04:00:21.578Z,34.67
2018-12-02T04:02:51.227Z,34.03
2018-12-02T04:05:21.458Z,38.60
2018-12-02T04:07:51.092Z,36.23
2018-12-02T04:10:20.752Z,38.77
2018-12-02T04:12:51.754Z,42.87
2018-12-02T04:15:22.838Z,33.93
2018-12-02T04:17:52.089Z,35.73
2018-12-02T04:20:21.495Z,41.83
2018-12-02T04:22:52.278Z,47.70
2018-12-02T04:25:22.702Z,56.83
2018-12-02T04:27:51.917Z,39.87
2018-12-02T04:30:21.701Z,59.27
2018-12-02T04:32:51.694Z,39.93
2018-12-02T04:35:25.725Z,49.43
2018-12-02T04:37:55.048Z,108.13
2018-12-02T04:40:24.323Z,129.97
2018-12-02T04:42:53.481Z,158.07
2018-12-02T04:45:22.727Z,100.50
2018-12-02T04:47:51.963Z,159.97
2018-12-02T04:50:23.777Z,196.10
2018-12-02T04:52:53.059Z,111.77
2018-12-02T04:55:22.291Z,98.20
2018-12-02T04:57:51.511Z,84.27
2018-12-02T05:00:21.298Z,68.17
2018-12-02T05:02:52.331Z,71.50
2018-12-02T05:05:24.135Z,51.67
2018-12-02T05:07:53.838Z,86.07
2018-12-02T05:10:23.150Z,61.50
2018-12-02T05:12:52.515Z,54.30
2018-12-02T05:15:22.320Z,52.53
2018-12-02T05:17:51.564Z,50.10
2018-12-02T05:20:22.084Z,61.20
2018-12-02T05:22:51.270Z,49.27
2018-12-02T05:25:20.530Z,54.17
2018-12-02T05:27:49.787Z,49.13
2018-12-02T05:30:19.953Z,48.40
2018-12-02T05:32:50.990Z,44.43
2018-12-02T05:35:20.285Z,47.87
2018-12-02T05:37:49.482Z,47.93
2018-12-02T05:40:20.575Z,38.63
2018-12-02T05:42:49.830Z,37.30
2018-12-02T05:45:19.439Z,35.27
2018-12-02T05:47:48.670Z,44.10
2018-12-02T05:50:21.692Z,50.27
2018-12-02T05:52:54.741Z,45.83
2018-12-02T05:55:26.014Z,43.03
2018-12-02T05:57:55.283Z,50.83
2018-12-02T06:00:24.530Z,34.50
2018-12-02T06:02:53.731Z,42.63
2018-12-02T06:05:22.961Z,47.60
2018-12-02T06:07:52.176Z,41.27
2018-12-02T06:10:22.232Z,34.47
2018-12-02T06:12:51.460Z,39.93
2018-12-02T06:15:21.237Z,46.57
2018-12-02T06:17:50.521Z,62.23
2018-12-02T06:20:22.503Z,62.33
2018-12-02T06:22:53.514Z,46.47
2018-12-02T06:25:23.454Z,47.20
2018-12-02T06:27:52.637Z,55.97
2018-12-02T06:30:25.764Z,55.27
2018-12-02T06:32:59.162Z,45.03
2018-12-02T06:35:28.337Z,55.83
2018-12-02T06:37:58.472Z,49.23
2018-12-02T06:40:28.540Z,60.43
2018-12-02T06:42:57.751Z,52.70
2018-12-02T06:45:26.993Z,57.77
2018-12-02T06:47:56.242Z,57.33
2018-12-02T06:50:26.114Z,60.17
2018-12-02T06:52:56.143Z,63.70
2018-12-02T06:55:31.464Z,69.37
2018-12-02T06:58:11.004Z,56.50
2018-12-02T07:00:48.836Z,60.63
2018-12-02T07:04:35.332Z,62.07
2018-12-02T07:07:04.838Z,59.47
2018-12-02T07:09:34.014Z,54.80
2018-12-02T07:12:03.231Z,43.83
2018-12-02T07:14:32.407Z,44.23
2018-12-02T07:17:01.898Z,45.23
2018-12-02T07:19:36.390Z,43.07
2018-12-02T07:22:12.527Z,43.20
2018-12-02T07:24:43.394Z,39.63
2018-12-02T07:27:14.279Z,34.00
2018-12-02T07:29:43.524Z,38.60
2018-12-02T07:32:12.845Z,33.33
2018-12-02T07:34:42.076Z,32.33
2018-12-02T07:37:16.939Z,25.80
2018-12-02T07:39:57.996Z,26.47
2018-12-02T07:42:27.221Z,34.90
2018-12-02T07:44:56.542Z,29.10
2018-12-02T07:47:25.788Z,32.83
2018-12-02T07:49:55.283Z,27.23
2018-12-02T07:52:24.685Z,38.30
2018-12-02T07:54:53.910Z,30.57
2018-12-02T07:57:23.178Z,30.80
2018-12-02T07:59:52.380Z,35.20
2018-12-02T08:02:21.586Z,44.97
2018-12-02T08:04:50.780Z,48.83
2018-12-02T08:07:20.411Z,37.30
2018-12-02T08:09:49.650Z,54.10
2018-12-02T08:12:18.796Z,57.37
2018-12-02T08:14:47.962Z,52.47
2018-12-02T08:17:17.164Z,41.13
2018-12-02T08:19:46.336Z,43.63
2018-12-02T08:22:15.520Z,51.23
2018-12-02T08:24:44.740Z,31.03
2018-12-02T08:27:13.967Z,50.07
2018-12-02T08:29:43.298Z,53.90
2018-12-02T08:32:12.474Z,49.87
2018-12-02T08:34:41.713Z,59.43
2018-12-02T08:37:10.939Z,52.70
2018-12-02T08:39:40.239Z,47.83
2018-12-02T08:42:09.557Z,56.97
2018-12-02T08:44:38.718Z,45.17
2018-12-02T08:47:07.977Z,74.70
2018-12-02T08:49:37.172Z,59.03
2018-12-02T08:52:06.414Z,58.37
2018-12-02T08:54:35.637Z,58.47
2018-12-02T08:57:04.882Z,58.50
2018-12-02T08:59:34.124Z,46.83
2018-12-02T09:02:03.666Z,47.73
2018-12-02T09:04:32.880Z,47.53
2018-12-02T09:07:02.047Z,52.00
2018-12-02T09:09:31.267Z,51.00
2018-12-02T09:12:00.556Z,57.70
2018-12-02T09:14:29.736Z,49.13
2018-12-02T09:16:58.916Z,42.07
2018-12-02T09:19:28.314Z,52.77
2018-12-02T09:21:57.643Z,61.83
2018-12-02T09:24:26.861Z,54.37
2018-12-02T09:26:56.097Z,52.47
2018-12-02T09:29:25.326Z,55.40
2018-12-02T09:31:54.537Z,60.17
2018-12-02T09:34:23.686Z,44.27
2018-12-02T09:36:57.857Z,60.13
2018-12-02T09:39:22.150Z,53.70
2018-12-02T09:41:51.314Z,55.00
2018-12-02T09:44:20.595Z,51.13
2018-12-02T09:46:49.740Z,64.37
2018-12-02T09:49:19.179Z,60.60
2018-12-02T09:51:48.373Z,48.43
2018-12-02T09:54:23.223Z,53.03
2018-12-02T09:56:46.819Z,63.63
2018-12-02T09:59:15.980Z,69.53
2018-12-02T10:01:45.226Z,66.33
2018-12-02T10:04:14.419Z,77.37
2018-12-02T10:06:45.720Z,69.03
2018-12-02T10:09:15.038Z,80.30
2018-12-02T10:11:44.399Z,86.03
2018-12-02T10:14:13.743Z,85.87
2018-12-02T10:16:43.102Z,64.27
2018-12-02T10:19:12.414Z,78.40
2018-12-02T10:21:41.708Z,102.40
2018-12-02T10:24:10.918Z,99.77
2018-12-02T10:26:40.264Z,101.33
2018-12-02T10:29:10.222Z,93.10
2018-12-02T10:31:39.617Z,86.83
2018-12-02T10:34:09.567Z,85.90
2018-12-02T10:36:40.006Z,89.57
2018-12-02T10:39:10.076Z,96.00
2018-12-02T10:41:40.156Z,100.73
2018-12-02T10:44:09.550Z,90.33
2018-12-02T10:46:43.804Z,106.70
2018-12-02T10:49:08.965Z,106.33
2018-12-02T10:51:39.153Z,70.73
2018-12-02T10:54:08.398Z,106.90
2018-12-02T10:56:37.761Z,69.43
2018-12-02T10:59:08.462Z,56.70
2018-12-02T11:01:37.701Z,79.97
2018-12-02T11:04:08.024Z,65.97
2018-12-02T11:06:38.164Z,42.80
2018-12-02T11:09:11.006Z,59.47
2018-12-02T11:11:40.689Z,53.47
2018-12-02T11:14:11.431Z,48.43
2018-12-02T11:16:41.400Z,44.03
2018-12-02T11:19:11.268Z,52.03
2018-12-02T11:21:42.086Z,48.53
2018-12-02T11:24:11.399Z,48.60
2018-12-02T11:26:40.708Z,47.77
2018-12-02T11:29:10.056Z,36.77
2018-12-02T11:31:39.227Z,31.57
2018-12-02T11:34:08.624Z,33.77
2018-12-02T11:36:38.451Z,38.07
2018-12-02T11:39:09.827Z,37.73
2018-12-02T11:41:39.112Z,36.40
2018-12-02T11:44:08.404Z,42.43
2018-12-02T11:46:38.379Z,28.17
2018-12-02T11:49:09.160Z,31.53
2018-12-02T11:51:38.560Z,35.00
2018-12-02T11:54:08.511Z,31.43
2018-12-02T11:56:37.876Z,34.63
2018-12-02T11:59:08.330Z,32.37
2018-12-02T12:01:37.635Z,26.70
2018-12-02T12:04:07.853Z,26.20
2018-12-02T12:06:37.509Z,24.90
2018-12-02T12:09:08.249Z,23.33
2018-12-02T12:11:37.458Z,25.67
2018-12-02T12:14:06.713Z,25.97
2018-12-02T12:16:35.813Z,29.63
2018-12-02T12:19:05.889Z,26.13
2018-12-02T12:21:35.034Z,25.23
2018-12-02T12:24:04.239Z,26.03
2018-12-02T12:26:33.426Z,28.60
2018-12-02T12:29:02.563Z,28.00
2018-12-02T12:31:31.742Z,24.57
2018-12-02T12:34:00.899Z,30.33
2018-12-02T12:36:31.303Z,30.60
2018-12-02T12:39:00.473Z,37.30
2018-12-02T12:41:29.652Z,26.23
2018-12-02T12:43:58.805Z,29.77
2018-12-02T12:46:28.013Z,29.53
2018-12-02T12:48:57.212Z,35.50
2018-12-02T12:51:26.659Z,31.50
2018-12-02T12:53:55.791Z,31.07
2018-12-02T12:56:24.993Z,30.90
2018-12-02T12:58:54.175Z,28.80
2018-12-02T13:01:23.335Z,31.33
2018-12-02T13:03:52.514Z,28.47
2018-12-02T13:06:21.724Z,32.90
2018-12-02T13:08:50.905Z,24.23
2018-12-02T13:11:20.142Z,26.23
2018-12-02T13:13:49.535Z,27.80
2018-12-02T13:16:18.741Z,28.30
2018-12-02T13:18:48.262Z,29.73
2018-12-02T13:21:17.454Z,32.17
2018-12-02T13:23:46.594Z,30.10
2018-12-02T13:26:15.784Z,38.77
2018-12-02T13:28:44.948Z,35.57
2018-12-02T13:31:14.205Z,34.33
2018-12-02T13:33:43.352Z,33.43
2018-12-02T13:36:12.539Z,30.83
2018-12-02T13:38:41.734Z,26.93
2018-12-02T13:41:10.918Z,28.63
2018-12-02T13:43:40.058Z,23.63
2018-12-02T13:46:09.220Z,26.93
2018-12-02T13:48:38.352Z,29.77
2018-12-02T13:51:07.549Z,26.93
2018-12-02T13:53:41.801Z,29.77
2018-12-02T13:56:10.918Z,28.83
2018-12-02T13:58:40.090Z,30.67
2018-12-02T14:01:09.368Z,36.13
2018-12-02T14:03:38.560Z,30.77
2018-12-02T14:06:07.824Z,39.77
2018-12-02T14:08:36.920Z,37.07
2018-12-02T14:11:06.280Z,37.33
2018-12-02T14:13:35.454Z,37.40
2018-12-02T14:16:44.379Z,42.30
2018-12-02T14:19:13.970Z,40.07
2018-12-02T14:21:43.142Z,37.47
2018-12-02T14:24:12.713Z,33.73
2018-12-02T14:26:43.781Z,37.17
2018-12-02T14:29:34.834Z,32.53
2018-12-02T14:32:06.753Z,42.17
2018-12-02T14:34:35.907Z,38.93
2018-12-02T14:37:05.101Z,34.00
2018-12-02T14:39:34.370Z,38.60
2018-12-02T14:42:03.599Z,33.73
2018-12-02T14:44:32.803Z,29.70
2018-12-02T14:47:01.938Z,32.33
2018-12-02T14:49:31.139Z,28.77
2018-12-02T14:52:00.365Z,25.53
2018-12-02T14:54:29.499Z,27.10
2018-12-02T14:56:58.664Z,27.73
2018-12-02T14:59:27.865Z,28.67
2018-12-02T15:01:57.052Z,33.67
2018-12-02T15:04:26.208Z,29.40
2018-12-02T15:06:55.310Z,29.33
2018-12-02T15:09:24.501Z,32.63
2018-12-02T15:11:58.972Z,31.13
2018-12-02T15:14:28.178Z,33.30
2018-12-02T15:16:57.338Z,34.83
2018-12-02T15:19:26.478Z,33.27
2018-12-02T15:21:55.613Z,36.37
2018-12-02T15:24:24.800Z,46.77
2018-12-02T15:26:54.002Z,48.67
2018-12-02T15:29:23.143Z,46.07
2018-12-02T15:31:52.393Z,48.20
2018-12-02T15:34:21.566Z,50.40
2018-12-02T15:36:50.724Z,47.33
2018-12-02T15:39:19.884Z,52.77
2018-12-02T15:41:49.068Z,47.97
2018-12-02T15:44:18.208Z,63.93
2018-12-02T15:46:47.386Z,57.63
2018-12-02T15:49:16.513Z,59.30
2018-12-02T15:51:45.658Z,62.93
2018-12-02T15:54:14.804Z,61.47
2018-12-02T15:56:43.982Z,58.87
2018-12-02T15:59:13.148Z,56.10
2018-12-02T16:01:42.336Z,58.00
2018-12-02T16:04:11.542Z,76.13
2018-12-02T16:06:40.686Z,62.53
2018-12-02T16:09:10.150Z,66.70
2018-12-02T16:11:39.346Z,57.27
2018-12-02T16:14:08.481Z,70.90
2018-12-02T16:16:37.653Z,73.50
2018-12-02T16:19:06.880Z,80.17
2018-12-02T16:21:36.061Z,73.57
2018-12-02T16:24:05.219Z,75.07
2018-12-02T16:26:34.373Z,75.27
2018-12-02T16:29:03.551Z,127.53
2018-12-02T16:31:32.703Z,95.67
2018-12-02T16:34:01.938Z,92.20
2018-12-02T16:36:31.104Z,124.57
2018-12-02T16:39:00.305Z,122.57
2018-12-02T16:41:29.534Z,88.47
2018-12-02T16:43:58.651Z,94.57
2018-12-02T16:46:27.851Z,88.93
2018-12-02T16:48:57.140Z,112.37
2018-12-02T16:51:26.329Z,82.60
2018-12-02T16:53:55.583Z,83.93
2018-12-02T16:56:24.746Z,99.30
2018-12-02T16:59:03.910Z,111.73
2018-12-02T17:01:34.073Z,67.60
2018-12-02T17:04:03.867Z,73.33
2018-12-02T17:06:33.030Z,78.43
2018-12-02T17:09:02.392Z,56.57
2018-12-02T17:11:31.605Z,57.50
2018-12-02T17:14:00.747Z,60.97
2018-12-02T17:16:29.876Z,52.70
2018-12-02T17:18:59.072Z,55.53
2018-12-02T17:21:28.282Z,53.43
2018-12-02T17:23:57.446Z,49.33
2018-12-02T17:26:26.639Z,42.60
2018-12-02T17:28:55.955Z,40.00
2018-12-02T17:31:26.912Z,44.00
2018-12-02T17:33:56.057Z,31.90
2018-12-02T17:36:25.200Z,35.93
2018-12-02T17:39:02.228Z,41.60
2018-12-02T17:41:31.382Z,38.17
2018-12-02T17:44:00.513Z,36.10
2018-12-02T17:46:29.653Z,36.60
2018-12-02T17:48:58.865Z,35.13
2018-12-02T17:51:28.006Z,34.40
2018-12-02T17:53:57.143Z,33.60
2018-12-02T17:56:26.313Z,36.93
2018-12-02T17:58:55.586Z,32.90
2018-12-02T18:01:24.716Z,29.87
2018-12-02T18:03:53.905Z,30.20
2018-12-02T18:06:23.172Z,30.80
2018-12-02T18:08:52.436Z,30.20
2018-12-02T18:11:21.619Z,28.43
2018-12-02T18:13:50.831Z,33.57
2018-12-02T18:16:20.106Z,29.93
2018-12-02T18:18:49.275Z,31.93
2018-12-02T18:21:18.423Z,25.27
2018-12-02T18:23:47.691Z,31.43
2018-12-02T18:26:16.794Z,29.23
2018-12-02T18:28:45.976Z,25.97
2018-12-02T18:31:15.130Z,25.20
2018-12-02T18:33:44.344Z,25.47
2018-12-02T18:36:15.836Z,24.77
2018-12-02T18:38:46.267Z,23.97
2018-12-02T18:41:18.861Z,21.53
2018-12-02T18:43:48.001Z,22.53
2018-12-02T18:46:17.771Z,19.33
2018-12-02T18:48:46.949Z,23.70
2018-12-02T18:51:16.126Z,23.57
2018-12-02T18:53:45.384Z,22.07
2018-12-02T18:56:16.649Z,24.67
2018-12-02T18:58:43.809Z,22.97
2018-12-02T19:01:12.974Z,30.40
2018-12-02T19:03:42.167Z,26.00
2018-12-02T19:06:11.316Z,24.77
2018-12-02T19:08:40.548Z,24.47
2018-12-02T19:11:10.063Z,22.87
2018-12-02T19:13:43.494Z,22.27
2018-12-02T19:16:08.379Z,22.27
2018-12-02T19:18:37.818Z,20.53
2018-12-02T19:21:10.443Z,21.53
2018-12-02T19:23:39.614Z,23.43
2018-12-02T19:26:08.765Z,20.93
2018-12-02T19:28:37.940Z,24.63
2018-12-02T19:31:07.127Z,22.70
2018-12-02T19:33:36.330Z,21.67
2018-12-02T19:36:09.692Z,20.50
2018-12-02T19:38:39.482Z,21.07
2018-12-02T19:41:08.686Z,20.63
2018-12-02T19:43:37.821Z,19.43
2018-12-02T19:46:07.066Z,20.47
2018-12-02T19:48:36.304Z,22.60
2018-12-02T19:51:05.762Z,21.23
2018-12-02T19:53:34.884Z,22.83
2018-12-02T19:56:04.067Z,20.67
2018-12-02T19:58:33.292Z,23.97
2018-12-02T20:01:02.504Z,22.03
2018-12-02T20:03:31.677Z,25.50
2018-12-02T20:06:00.834Z,21.13
2018-12-02T20:08:30.036Z,22.50
2018-12-02T20:10:59.199Z,22.40
2018-12-02T20:13:28.479Z,26.90
2018-12-02T20:16:03.313Z,23.93
2018-12-02T20:18:32.491Z,20.80
2018-12-02T20:21:02.014Z,26.43
2018-12-02T20:23:36.647Z,23.70
2018-12-02T20:26:05.844Z,22.83
2018-12-02T20:28:37.966Z,27.43
2018-12-02T20:31:24.162Z,28.40
2018-12-02T20:33:53.350Z,27.03
2018-12-02T20:36:22.518Z,26.43
2018-12-02T20:38:51.745Z,28.37
2018-12-02T20:41:21.222Z,26.10
2018-12-02T20:43:50.348Z,24.33
2018-12-02T20:46:19.559Z,24.83
2018-12-02T20:48:48.730Z,27.30
2018-12-02T20:51:17.869Z,30.27
2018-12-02T20:53:47.037Z,26.77
2018-12-02T20:56:17.299Z,27.80
2018-12-02T20:58:46.475Z,31.67
2018-12-02T21:01:15.644Z,26.50
2018-12-02T21:03:46.776Z,31.33
2018-12-02T21:06:18.477Z,26.90
2018-12-02T21:08:47.653Z,25.33
2018-12-02T21:11:16.970Z,27.27
2018-12-02T21:13:46.101Z,28.27
2018-12-02T21:16:15.325Z,28.93
2018-12-02T21:18:45.201Z,24.10
2018-12-02T21:21:14.416Z,21.83
2018-12-02T21:23:43.711Z,24.20
2018-12-02T21:26:13.165Z,24.20
2018-12-02T21:28:42.586Z,22.67
2018-12-02T21:31:11.790Z,25.90
2018-12-02T21:33:41.872Z,23.37
2018-12-02T21:36:11.009Z,24.87
2018-12-02T21:38:40.442Z,23.20
2018-12-02T21:41:09.871Z,25.13
2018-12-02T21:43:38.963Z,21.97
2018-12-02T21:46:10.225Z,19.83
2018-12-02T21:48:39.710Z,19.70
2018-12-02T21:51:10.778Z,19.53
2018-12-02T21:53:40.120Z,18.27
2018-12-02T21:56:09.283Z,18.10
2018-12-02T21:58:38.484Z,21.80
2018-12-02T22:01:14.231Z,20.30
2018-12-02T22:03:44.375Z,19.07
2018-12-02T22:06:13.681Z,18.30
2018-12-02T22:08:43.141Z,20.03
2018-12-02T22:11:12.564Z,17.77
2018-12-02T22:13:43.595Z,17.83
2018-12-02T22:16:11.786Z,17.07
2018-12-02T22:18:41.104Z,17.20
2018-12-02T22:21:10.440Z,18.03
2018-12-02T22:23:40.438Z,15.23
2018-12-02T22:26:09.734Z,15.80
2018-12-02T22:28:39.136Z,14.60
2018-12-02T22:31:08.417Z,15.57
2018-12-02T22:33:37.654Z,17.33
2018-12-02T22:36:13.804Z,18.60
2018-12-02T22:38:37.868Z,17.57
2018-12-02T22:41:08.042Z,18.10
2018-12-02T22:43:37.282Z,14.37
2018-12-02T22:46:06.928Z,18.90
2018-12-02T22:48:36.771Z,15.43
2018-12-02T22:51:06.029Z,18.27
2018-12-02T22:53:35.468Z,16.47
2018-12-02T22:56:04.882Z,17.53
2018-12-02T22:58:35.208Z,17.33
2018-12-02T23:01:09.712Z,17.90
2018-12-02T23:03:39.024Z,17.60
2018-12-02T23:06:08.449Z,16.30
2018-12-02T23:08:37.649Z,16.90
2018-12-02T23:11:07.239Z,18.27
2018-12-02T23:13:36.413Z,18.47
2018-12-02T23:16:06.346Z,16.93
2018-12-02T23:18:37.505Z,16.73
2018-12-02T23:21:06.814Z,17.80
2018-12-02T23:23:36.293Z,18.97
2018-12-02T23:26:06.399Z,17.83
2018-12-02T23:28:36.381Z,16.90
2018-12-02T23:31:06.414Z,18.00
2018-12-02T23:33:36.330Z,17.60
2018-12-02T23:36:05.984Z,17.23
2018-12-02T23:38:35.388Z,14.93
2018-12-02T23:41:05.531Z,14.40
2018-12-02T23:43:34.859Z,17.87
2018-12-02T23:46:04.660Z,17.30
2018-12-02T23:48:33.953Z,16.30
2018-12-02T23:51:03.888Z,17.40
2018-12-02T23:53:33.058Z,18.37
2018-12-02T23:56:03.810Z,17.73
2018-12-02T23:58:32.949Z,16.87
